Flight Track Log - Related Links

Times and Time Zones

All times are in EST time to prevent confusion due to time zone crossing. See the TAM3917 flight status page for this flight to view local times or setup timezone preferences in your user account.

Time Position Orientation Groundspeed Altitude Reporting Facility
EST Latitude Longitude Course Direction KTS MPH feet Rate Location/Type
Mon 08:04:49 AM -22.9000 -43.1630 129° Southeast 151 174 500  Level FlightAware ADS-B
Mon 08:05:21 AM -22.8850 -43.1470 45° Northeast 170 196 2,100 2,387 Climbing FlightAware ADS-B
Mon 08:06:22 AM -22.9340 -43.1200 153° Southeast 239 275 4,200 2,289 Climbing FlightAware ADS-B
Mon 08:06:58 AM -22.9770 -43.1230 184° South 277 319 5,800 3,571 Climbing FlightAware ADS-B
Mon 08:07:46 AM -23.0370 -43.1390 194° South 274 315 9,200 3,500 Climbing FlightAware ADS-B
Mon 08:08:22 AM -23.0770 -43.1660 212° Southwest 306 352 10,700 2,000 Climbing FlightAware ADS-B
Mon 08:08:58 AM -23.1070 -43.2150 236° Southwest 347 399 11,600 2,132 Climbing FlightAware ADS-B
Mon 08:09:38 AM -23.1430 -43.2750 237° Southwest 362 417 13,400 2,500 Climbing FlightAware ADS-B
Mon 08:10:22 AM -23.1820 -43.3460 239° Southwest 381 438 15,100 2,442 Climbing FlightAware ADS-B
Mon 08:11:04 AM -23.2040 -43.4220 253° West 385 443 16,900 1,579 Climbing FlightAware ADS-B
Mon 08:11:38 AM -23.2210 -43.4780 252° West 386 444 17,100 1,974 Climbing FlightAware ADS-B
Mon 08:12:20 AM -23.2460 -43.5670 253° West 414 476 19,400 2,415 Climbing FlightAware ADS-B
Mon 08:13:00 AM -23.2700 -43.6500 253° West 431 496 20,400 2,676 Climbing FlightAware ADS-B
Mon 08:13:34 AM -23.2890 -43.7160 253° West 402 463 22,700 2,707 Climbing FlightAware ADS-B
Mon 08:14:22 AM -23.3160 -43.8100 253° West 410 472 24,100 2,069 Climbing FlightAware ADS-B
Mon 08:15:30 AM -23.3540 -43.9430 253° West 402 463 26,700 2,037 Climbing FlightAware ADS-B
Mon 08:16:11 AM -23.3740 -44.0180 254° West 406 467 27,800 1,083 Climbing FlightAware ADS-B
Mon 08:16:42 AM -23.3880 -44.0850 257° West 393 452 28,000 179 Climbing FlightAware ADS-B
Mon 08:17:18 AM -23.4030 -44.1520 256° West 375 432 28,000  Level FlightAware ADS-B
Mon 08:18:26 AM -23.4290 -44.2770 257° West 376 433 28,000  Level FlightAware ADS-B
Mon 08:18:58 AM -23.4420 -44.3370 257° West 378 435 28,000  Level FlightAware ADS-B
Mon 08:19:48 AM -23.4590 -44.4190 257° West 379 436 28,000  Level FlightAware ADS-B
Mon 08:20:24 AM -23.4720 -44.4760 256° West 379 436 28,000  Level FlightAware ADS-B
Mon 08:21:00 AM -23.4840 -44.5330 257° West 379 436 28,000  Level FlightAware ADS-B
Mon 08:22:03 AM -23.5050 -44.6320 257° West 379 436 28,000  Level FlightAware ADS-B
Mon 08:22:51 AM -23.5210 -44.7080 257° West 379 436 28,000  Level FlightAware ADS-B
Mon 08:23:03 AM -23.5250 -44.7270 257° West 379 436 28,000  Level FlightAware ADS-B
Mon 08:26:00 AM -23.5415 -45.0118 266° West  Level Estimated
Mon 08:26:02 AM -23.6050 -45.1120 266° West 371 427 28,000  Level FlightAware ADS-B
Mon 08:26:37 AM -23.6180 -45.1770 258° West 370 426 28,000  Level FlightAware ADS-B
Mon 08:27:08 AM -23.6310 -45.2360 256° West 369 425 28,000  Level FlightAware ADS-B
Mon 08:27:53 AM -23.6470 -45.3150 258° West 369 425 28,000  Level FlightAware ADS-B
Mon 08:28:25 AM -23.6590 -45.3730 257° West 371 427 28,000 -74 Level FlightAware ADS-B
Mon 08:29:14 AM -23.6770 -45.4600 257° West 369 425 27,900 -1,097 Descending FlightAware ADS-B
Mon 08:29:58 AM -23.6940 -45.5460 258° West 370 426 26,300 -2,148 Descending FlightAware ADS-B
Mon 08:30:35 AM -23.7080 -45.6120 257° West 373 429 25,000 -2,219 Descending FlightAware ADS-B
Mon 08:31:11 AM -23.7200 -45.6750 258° West 378 435 23,600 -1,737 Descending FlightAware ADS-B
Mon 08:31:51 AM -23.7350 -45.7480 257° West 358 412 22,800 -1,023 Descending FlightAware ADS-B
Mon 08:32:39 AM -23.7530 -45.8330 257° West 329 379 22,100 -923 Descending FlightAware ADS-B
Mon 08:33:22 AM -23.7660 -45.9000 258° West 316 364 21,400 -1,172 Descending FlightAware ADS-B
Mon 08:34:06 AM -23.7940 -45.9650 245° Southwest 309 356 20,400 -1,425 Descending FlightAware ADS-B
Mon 08:34:42 AM -23.8140 -46.0160 247° West 304 350 19,500 -1,421 Descending FlightAware ADS-B
Mon 08:35:22 AM -23.8230 -46.0750 261° West 300 345 18,600 -1,610 Descending FlightAware ADS-B
Mon 08:36:04 AM -23.8320 -46.1380 261° West 307 353 17,300 -1,667 Descending FlightAware ADS-B
Mon 08:36:34 AM -23.8390 -46.1840 261° West 305 351 16,600 -1,500 Descending FlightAware ADS-B
Mon 08:37:12 AM -23.8480 -46.2410 260° West 308 354 15,600 -1,216 Descending FlightAware ADS-B
Mon 08:37:48 AM -23.8560 -46.2950 261° West 293 337 15,100 -1,324 Descending FlightAware ADS-B
Mon 08:38:20 AM -23.8630 -46.3420 261° West 287 330 14,100 -1,770 Descending FlightAware ADS-B
Mon 08:38:49 AM -23.8680 -46.3810 262° West 280 322 13,300 -1,636 Descending FlightAware ADS-B
Mon 08:39:48 AM -23.8330 -46.4590 296° West 288 331 11,700 -1,339 Descending FlightAware ADS-B
Mon 08:40:50 AM -23.7930 -46.5360 300° West 270 311 10,600 -1,041 Descending FlightAware ADS-B
Mon 08:41:26 AM -23.7710 -46.5780 300° West 260 299 10,000 -1,200 Descending FlightAware ADS-B
Mon 08:42:10 AM -23.7450 -46.6280 300° West 257 296 9,000 -1,263 Descending FlightAware ADS-B
Mon 08:42:42 AM -23.7270 -46.6630 299° West 253 291 8,400 -900 Descending FlightAware ADS-B
Mon 08:43:10 AM -23.7100 -46.6940 301° West 245 282 8,100 -400 Descending FlightAware ADS-B
Mon 08:43:42 AM -23.6910 -46.7250 304° West 232 267 8,000 -88 Descending FlightAware ADS-B
Mon 08:44:18 AM -23.6630 -46.7520 319° Northwest 231 266 8,000  Level FlightAware ADS-B
Mon 08:45:04 AM -23.6260 -46.7900 317° Northwest 231 266 8,000 -140 Level FlightAware ADS-B
Mon 08:45:44 AM -23.5940 -46.8210 318° Northwest 230 265 7,800 -369 Descending FlightAware ADS-B
Mon 08:46:09 AM -23.5740 -46.8400 319° Northwest 224 258 7,600 -517 Descending FlightAware ADS-B
Mon 08:46:42 AM -23.5490 -46.8640 319° Northwest 221 254 7,300 -493 Descending FlightAware ADS-B
Mon 08:47:22 AM -23.5180 -46.8940 318° Northwest 221 254 7,000 -500 Descending FlightAware ADS-B
Mon 08:47:42 AM -23.4990 -46.9020 339° North 222 255 6,800 -1,091 Descending FlightAware ADS-B
Mon 08:48:28 AM -23.4670 -46.8660 46° Northeast 251 289 5,800 -929 Descending FlightAware ADS-B
Mon 08:49:06 AM -23.4720 -46.8210 97° East 231 266 5,500 -343 Descending FlightAware ADS-B
Mon 08:49:38 AM -23.4750 -46.7840 95° East 232 267 5,400 -102 Descending FlightAware ADS-B
Mon 08:50:05 AM -23.4840 -46.7570 110° East 219 252 5,400 -537 Level FlightAware ADS-B
Mon 08:50:45 AM -23.5170 -46.7320 145° Southeast 209 241 4,800 -947 Descending FlightAware ADS-B
Mon 08:51:21 AM -23.5440 -46.7140 149° Southeast 172 198 4,200 -833 Descending FlightAware ADS-B
Mon 08:51:57 AM -23.5650 -46.6990 147° Southeast 142 163 3,800 -738 Descending FlightAware ADS-B
Mon 08:52:26 AM -23.5810 -46.6880 148° Southeast 133 153 3,400 -689 Descending FlightAware ADS-B
Mon 08:52:58 AM -23.5970 -46.6770 148° Southeast 131 151 3,100 -581 Descending FlightAware ADS-B
Mon 08:53:28 AM -23.6130 -46.6660 148° Southeast 130 150 2,800 -692 Descending FlightAware ADS-B
Mon 08:53:50 AM -23.6100 -46.6680 329° Northwest 130 150 2,500 -375 Descending FlightAware ADS-B
Mon 08:54:16 AM -23.6210 -46.6600 146° Southeast 130 150 2,500  Level FlightAware ADS-B

Login

Don't have an account? Register now (free) for customized features, flight alerts, and more!